sensor_id;sensor_type;location;lat;lon;timestamp;pressure;altitude;pressure_sealevel;temperature;humidity
68941;BME280;55982;51.476;7.552;2024-02-26T00:01:35;98107.75;;;6.47;100.00
68941;BME280;55982;51.476;7.552;2024-02-26T00:04:01;98112.09;;;6.65;100.00
68941;BME280;55982;51.476;7.552;2024-02-26T00:06:27;98105.50;;;6.58;100.00
68941;BME280;55982;51.476;7.552;2024-02-26T00:08:53;98094.28;;;6.58;100.00
68941;BME280;55982;51.476;7.552;2024-02-26T00:11:18;98102.28;;;6.53;100.00
68941;BME280;55982;51.476;7.552;2024-02-26T00:13:43;98100.06;;;6.44;100.00
68941;BME280;55982;51.476;7.552;2024-02-26T00:16:08;98096.94;;;6.37;100.00
68941;BME280;55982;51.476;7.552;2024-02-26T00:18:33;98096.19;;;6.34;100.00
68941;BME280;55982;51.476;7.552;2024-02-26T00:20:59;98097.22;;;6.50;100.00
68941;BME280;55982;51.476;7.552;2024-02-26T00:23:25;98105.34;;;6.42;100.00
68941;BME280;55982;51.476;7.552;2024-02-26T00:25:52;98098.06;;;6.51;100.00
68941;BME280;55982;51.476;7.552;2024-02-26T00:28:18;98107.16;;;6.40;100.00
68941;BME280;55982;51.476;7.552;2024-02-26T00:30:45;98099.78;;;6.31;100.00
68941;BME280;55982;51.476;7.552;2024-02-26T00:33:10;98103.09;;;6.35;100.00
68941;BME280;55982;51.476;7.552;2024-02-26T00:35:35;98097.88;;;6.35;100.00
68941;BME280;55982;51.476;7.552;2024-02-26T00:38:00;98098.03;;;6.32;100.00
68941;BME280;55982;51.476;7.552;2024-02-26T00:40:27;98101.38;;;6.34;100.00
68941;BME280;55982;51.476;7.552;2024-02-26T00:42:52;98102.38;;;6.31;100.00
68941;BME280;55982;51.476;7.552;2024-02-26T00:45:17;98097.75;;;6.38;100.00
68941;BME280;55982;51.476;7.552;2024-02-26T00:47:42;98102.13;;;6.37;100.00
68941;BME280;55982;51.476;7.552;2024-02-26T00:50:09;98095.66;;;6.46;100.00
68941;BME280;55982;51.476;7.552;2024-02-26T00:52:34;98091.31;;;6.46;100.00
68941;BME280;55982;51.476;7.552;2024-02-26T00:55:00;98096.25;;;6.71;100.00
68941;BME280;55982;51.476;7.552;2024-02-26T00:57:25;98093.56;;;6.73;100.00
68941;BME280;55982;51.476;7.552;2024-02-26T00:59:50;98107.78;;;6.84;100.00
68941;BME280;55982;51.476;7.552;2024-02-26T01:02:16;98102.72;;;6.81;100.00
68941;BME280;55982;51.476;7.552;2024-02-26T01:04:41;98096.13;;;6.74;100.00
68941;BME280;55982;51.476;7.552;2024-02-26T01:07:06;98104.38;;;6.64;100.00
68941;BME280;55982;51.476;7.552;2024-02-26T01:09:31;98100.25;;;6.60;100.00
68941;BME280;55982;51.476;7.552;2024-02-26T01:11:57;98105.25;;;6.64;100.00
68941;BME280;55982;51.476;7.552;2024-02-26T01:14:22;98101.56;;;6.49;100.00
68941;BME280;55982;51.476;7.552;2024-02-26T01:16:47;98099.28;;;6.42;100.00
68941;BME280;55982;51.476;7.552;2024-02-26T01:19:12;98090.47;;;6.46;100.00
68941;BME280;55982;51.476;7.552;2024-02-26T01:21:38;98086.28;;;6.43;100.00
68941;BME280;55982;51.476;7.552;2024-02-26T01:24:03;98079.47;;;6.21;100.00
68941;BME280;55982;51.476;7.552;2024-02-26T01:26:28;98076.75;;;6.24;100.00
68941;BME280;55982;51.476;7.552;2024-02-26T01:28:53;98069.00;;;6.22;100.00
68941;BME280;55982;51.476;7.552;2024-02-26T01:31:20;98084.66;;;6.21;100.00
68941;BME280;55982;51.476;7.552;2024-02-26T01:33:45;98086.47;;;6.19;100.00
68941;BME280;55982;51.476;7.552;2024-02-26T01:36:11;98106.00;;;6.27;100.00
68941;BME280;55982;51.476;7.552;2024-02-26T01:38:36;98100.31;;;6.39;100.00
68941;BME280;55982;51.476;7.552;2024-02-26T01:41:01;98102.56;;;6.47;100.00
68941;BME280;55982;51.476;7.552;2024-02-26T01:43:27;98122.31;;;6.31;100.00
68941;BME280;55982;51.476;7.552;2024-02-26T01:45:52;98105.16;;;6.27;100.00
68941;BME280;55982;51.476;7.552;2024-02-26T01:48:18;98111.53;;;6.20;100.00
68941;BME280;55982;51.476;7.552;2024-02-26T01:50:44;98099.13;;;6.26;100.00
68941;BME280;55982;51.476;7.552;2024-02-26T01:53:09;98100.94;;;6.24;100.00
68941;BME280;55982;51.476;7.552;2024-02-26T01:55:37;98104.28;;;6.28;100.00
68941;BME280;55982;51.476;7.552;2024-02-26T01:58:02;98104.31;;;6.26;100.00
68941;BME280;55982;51.476;7.552;2024-02-26T02:00:28;98103.75;;;6.20;100.00
68941;BME280;55982;51.476;7.552;2024-02-26T02:02:53;98112.31;;;6.22;100.00
68941;BME280;55982;51.476;7.552;2024-02-26T02:05:20;98097.19;;;6.11;100.00
68941;BME280;55982;51.476;7.552;2024-02-26T02:07:45;98102.91;;;6.19;100.00
68941;BME280;55982;51.476;7.552;2024-02-26T02:10:11;98096.22;;;6.14;100.00
68941;BME280;55982;51.476;7.552;2024-02-26T02:12:37;98091.41;;;6.25;100.00
68941;BME280;55982;51.476;7.552;2024-02-26T02:15:05;98098.47;;;6.01;100.00
68941;BME280;55982;51.476;7.552;2024-02-26T02:17:30;98097.25;;;6.10;100.00
68941;BME280;55982;51.476;7.552;2024-02-26T02:19:56;98102.91;;;6.19;100.00
68941;BME280;55982;51.476;7.552;2024-02-26T02:22:21;98098.19;;;6.09;100.00
68941;BME280;55982;51.476;7.552;2024-02-26T02:24:48;98105.31;;;6.04;100.00
68941;BME280;55982;51.476;7.552;2024-02-26T02:27:13;98108.59;;;6.07;100.00
68941;BME280;55982;51.476;7.552;2024-02-26T02:29:38;98109.59;;;6.05;100.00
68941;BME280;55982;51.476;7.552;2024-02-26T02:32:04;98113.22;;;6.01;100.00
68941;BME280;55982;51.476;7.552;2024-02-26T02:34:30;98106.94;;;6.06;100.00
68941;BME280;55982;51.476;7.552;2024-02-26T02:36:55;98111.53;;;6.00;100.00
68941;BME280;55982;51.476;7.552;2024-02-26T02:39:21;98113.09;;;5.84;100.00
68941;BME280;55982;51.476;7.552;2024-02-26T02:41:47;98112.53;;;5.76;100.00
68941;BME280;55982;51.476;7.552;2024-02-26T02:44:12;98115.31;;;5.71;100.00
68941;BME280;55982;51.476;7.552;2024-02-26T02:46:37;98117.97;;;5.70;100.00
68941;BME280;55982;51.476;7.552;2024-02-26T02:49:03;98127.63;;;5.88;100.00
68941;BME280;55982;51.476;7.552;2024-02-26T02:51:28;98119.34;;;5.78;100.00
68941;BME280;55982;51.476;7.552;2024-02-26T02:53:53;98121.66;;;5.86;100.00
68941;BME280;55982;51.476;7.552;2024-02-26T02:56:18;98120.97;;;5.81;100.00
68941;BME280;55982;51.476;7.552;2024-02-26T02:58:44;98120.19;;;5.79;100.00
68941;BME280;55982;51.476;7.552;2024-02-26T03:01:09;98123.69;;;5.78;100.00
68941;BME280;55982;51.476;7.552;2024-02-26T03:03:34;98130.16;;;5.89;100.00
68941;BME280;55982;51.476;7.552;2024-02-26T03:06:01;98136.19;;;5.90;100.00
68941;BME280;55982;51.476;7.552;2024-02-26T03:08:27;98132.81;;;5.88;100.00
68941;BME280;55982;51.476;7.552;2024-02-26T03:10:52;98137.28;;;5.84;100.00
68941;BME280;55982;51.476;7.552;2024-02-26T03:13:17;98134.97;;;5.77;100.00
68941;BME280;55982;51.476;7.552;2024-02-26T03:15:43;98143.31;;;5.85;100.00
68941;BME280;55982;51.476;7.552;2024-02-26T03:18:08;98127.81;;;5.83;100.00
68941;BME280;55982;51.476;7.552;2024-02-26T03:20:33;98135.41;;;5.88;100.00
68941;BME280;55982;51.476;7.552;2024-02-26T03:22:58;98128.75;;;5.81;100.00
68941;BME280;55982;51.476;7.552;2024-02-26T03:25:24;98138.47;;;5.76;100.00
68941;BME280;55982;51.476;7.552;2024-02-26T03:27:49;98137.69;;;5.74;100.00
68941;BME280;55982;51.476;7.552;2024-02-26T03:30:15;98145.22;;;5.80;100.00
68941;BME280;55982;51.476;7.552;2024-02-26T03:32:40;98142.41;;;5.86;100.00
68941;BME280;55982;51.476;7.552;2024-02-26T03:35:05;98145.22;;;5.80;100.00
68941;BME280;55982;51.476;7.552;2024-02-26T03:37:32;98143.19;;;5.66;100.00
68941;BME280;55982;51.476;7.552;2024-02-26T03:39:58;98153.50;;;5.68;100.00
68941;BME280;55982;51.476;7.552;2024-02-26T03:42:23;98159.47;;;5.70;100.00
68941;BME280;55982;51.476;7.552;2024-02-26T03:44:48;98158.81;;;5.65;100.00
68941;BME280;55982;51.476;7.552;2024-02-26T03:47:13;98155.78;;;5.53;100.00
68941;BME280;55982;51.476;7.552;2024-02-26T03:49:39;98151.56;;;5.29;100.00
68941;BME280;55982;51.476;7.552;2024-02-26T03:52:04;98146.94;;;5.37;100.00
68941;BME280;55982;51.476;7.552;2024-02-26T03:54:29;98141.50;;;5.22;100.00
68941;BME280;55982;51.476;7.552;2024-02-26T03:56:55;98144.03;;;5.23;100.00
68941;BME280;55982;51.476;7.552;2024-02-26T03:59:20;98147.94;;;5.12;100.00
68941;BME280;55982;51.476;7.552;2024-02-26T04:01:47;98151.75;;;5.03;100.00
68941;BME280;55982;51.476;7.552;2024-02-26T04:04:12;98148.28;;;5.03;100.00
68941;BME280;55982;51.476;7.552;2024-02-26T04:06:37;98150.69;;;5.07;100.00
68941;BME280;55982;51.476;7.552;2024-02-26T04:09:03;98144.94;;;5.22;100.00
68941;BME280;55982;51.476;7.552;2024-02-26T04:11:29;98136.63;;;5.14;100.00
68941;BME280;55982;51.476;7.552;2024-02-26T04:13:54;98139.31;;;5.11;100.00
68941;BME280;55982;51.476;7.552;2024-02-26T04:16:19;98134.31;;;5.07;100.00
68941;BME280;55982;51.476;7.552;2024-02-26T04:18:44;98140.91;;;4.92;100.00
68941;BME280;55982;51.476;7.552;2024-02-26T04:21:10;98143.03;;;5.04;100.00
68941;BME280;55982;51.476;7.552;2024-02-26T04:23:35;98138.81;;;5.02;100.00
68941;BME280;55982;51.476;7.552;2024-02-26T04:26:00;98136.91;;;5.07;100.00
68941;BME280;55982;51.476;7.552;2024-02-26T04:28:26;98150.94;;;5.01;100.00
68941;BME280;55982;51.476;7.552;2024-02-26T04:30:53;98138.34;;;5.14;100.00
68941;BME280;55982;51.476;7.552;2024-02-26T04:33:19;98144.69;;;5.07;100.00
68941;BME280;55982;51.476;7.552;2024-02-26T04:35:44;98149.53;;;4.93;100.00
68941;BME280;55982;51.476;7.552;2024-02-26T04:38:09;98152.41;;;5.08;100.00
68941;BME280;55982;51.476;7.552;2024-02-26T04:40:34;98153.75;;;4.95;100.00
68941;BME280;55982;51.476;7.552;2024-02-26T04:43:00;98153.75;;;4.95;100.00
68941;BME280;55982;51.476;7.552;2024-02-26T04:45:25;98161.31;;;5.01;100.00
68941;BME280;55982;51.476;7.552;2024-02-26T04:47:50;98159.59;;;5.00;100.00
68941;BME280;55982;51.476;7.552;2024-02-26T04:50:15;98171.78;;;4.98;100.00
68941;BME280;55982;51.476;7.552;2024-02-26T04:52:41;98165.81;;;4.96;100.00
68941;BME280;55982;51.476;7.552;2024-02-26T04:55:06;98164.00;;;4.98;100.00
68941;BME280;55982;51.476;7.552;2024-02-26T04:57:32;98171.09;;;4.93;100.00
68941;BME280;55982;51.476;7.552;2024-02-26T04:59:57;98174.59;;;4.92;100.00
68941;BME280;55982;51.476;7.552;2024-02-26T05:02:22;98171.84;;;4.97;100.00
68941;BME280;55982;51.476;7.552;2024-02-26T05:04:48;98169.09;;;5.01;100.00
68941;BME280;55982;51.476;7.552;2024-02-26T05:07:13;98186.19;;;5.05;100.00
68941;BME280;55982;51.476;7.552;2024-02-26T05:09:38;98193.06;;;5.06;100.00
68941;BME280;55982;51.476;7.552;2024-02-26T05:12:04;98203.56;;;5.03;100.00
68941;BME280;55982;51.476;7.552;2024-02-26T05:14:29;98203.81;;;5.19;100.00
68941;BME280;55982;51.476;7.552;2024-02-26T05:16:54;98197.09;;;5.13;100.00
68941;BME280;55982;51.476;7.552;2024-02-26T05:19:19;98206.09;;;5.26;100.00
68941;BME280;55982;51.476;7.552;2024-02-26T05:21:45;98204.78;;;5.16;100.00
68941;BME280;55982;51.476;7.552;2024-02-26T05:24:12;98206.47;;;5.17;100.00
68941;BME280;55982;51.476;7.552;2024-02-26T05:26:38;98207.81;;;5.27;100.00
68941;BME280;55982;51.476;7.552;2024-02-26T05:29:03;98214.81;;;5.25;100.00
68941;BME280;55982;51.476;7.552;2024-02-26T05:31:28;98219.13;;;5.25;100.00
68941;BME280;55982;51.476;7.552;2024-02-26T05:33:53;98225.63;;;5.13;100.00
68941;BME280;55982;51.476;7.552;2024-02-26T05:36:19;98227.19;;;5.17;100.00
68941;BME280;55982;51.476;7.552;2024-02-26T05:38:46;98233.22;;;5.18;100.00
68941;BME280;55982;51.476;7.552;2024-02-26T05:41:11;98247.19;;;5.14;100.00
68941;BME280;55982;51.476;7.552;2024-02-26T05:43:36;98244.47;;;5.18;100.00
68941;BME280;55982;51.476;7.552;2024-02-26T05:46:02;98239.50;;;5.12;100.00
68941;BME280;55982;51.476;7.552;2024-02-26T05:48:27;98235.88;;;5.16;100.00
68941;BME280;55982;51.476;7.552;2024-02-26T05:50:53;98226.88;;;5.03;100.00
68941;BME280;55982;51.476;7.552;2024-02-26T05:53:18;98232.72;;;5.08;100.00
68941;BME280;55982;51.476;7.552;2024-02-26T05:55:43;98238.41;;;5.18;100.00
68941;BME280;55982;51.476;7.552;2024-02-26T05:58:08;98243.19;;;5.05;100.00
68941;BME280;55982;51.476;7.552;2024-02-26T06:00:34;98234.19;;;5.15;100.00
68941;BME280;55982;51.476;7.552;2024-02-26T06:02:59;98234.31;;;5.12;100.00
68941;BME280;55982;51.476;7.552;2024-02-26T06:05:39;98234.03;;;5.20;100.00
68941;BME280;55982;51.476;7.552;2024-02-26T06:08:04;98240.28;;;5.14;100.00
68941;BME280;55982;51.476;7.552;2024-02-26T06:10:30;98236.91;;;5.12;100.00
68941;BME280;55982;51.476;7.552;2024-02-26T06:12:55;98240.72;;;5.25;100.00
68941;BME280;55982;51.476;7.552;2024-02-26T06:15:20;98244.47;;;5.18;100.00
68941;BME280;55982;51.476;7.552;2024-02-26T06:17:45;98246.69;;;5.27;100.00
68941;BME280;55982;51.476;7.552;2024-02-26T06:20:11;98248.28;;;5.31;100.00
68941;BME280;55982;51.476;7.552;2024-02-26T06:22:39;98245.78;;;5.28;100.00
68941;BME280;55982;51.476;7.552;2024-02-26T06:25:04;98247.50;;;5.29;100.00
68941;BME280;55982;51.476;7.552;2024-02-26T06:27:29;98249.41;;;5.24;100.00
68941;BME280;55982;51.476;7.552;2024-02-26T06:29:54;98257.63;;;5.35;100.00
68941;BME280;55982;51.476;7.552;2024-02-26T06:32:19;98256.72;;;5.36;100.00
68941;BME280;55982;51.476;7.552;2024-02-26T06:34:45;98261.00;;;5.37;100.00
68941;BME280;55982;51.476;7.552;2024-02-26T06:37:10;98262.25;;;5.27;100.00
68941;BME280;55982;51.476;7.552;2024-02-26T06:39:35;98259.78;;;5.24;100.00
68941;BME280;55982;51.476;7.552;2024-02-26T06:42:01;98256.28;;;5.25;100.00
68941;BME280;55982;51.476;7.552;2024-02-26T06:44:29;98264.50;;;5.36;100.00
68941;BME280;55982;51.476;7.552;2024-02-26T06:47:00;98262.47;;;5.44;100.00
68941;BME280;55982;51.476;7.552;2024-02-26T06:49:25;98280.19;;;5.33;100.00
68941;BME280;55982;51.476;7.552;2024-02-26T06:51:51;98276.09;;;5.49;100.00
68941;BME280;55982;51.476;7.552;2024-02-26T06:54:16;98279.97;;;5.39;100.00
68941;BME280;55982;51.476;7.552;2024-02-26T06:56:41;98281.75;;;5.37;100.00
68941;BME280;55982;51.476;7.552;2024-02-26T06:59:07;98281.06;;;5.55;100.00
68941;BME280;55982;51.476;7.552;2024-02-26T07:01:32;98281.53;;;5.43;100.00
68941;BME280;55982;51.476;7.552;2024-02-26T07:03:57;98281.63;;;5.40;100.00
68941;BME280;55982;51.476;7.552;2024-02-26T07:06:23;98288.03;;;5.53;100.00
68941;BME280;55982;51.476;7.552;2024-02-26T07:08:48;98282.84;;;5.53;100.00
68941;BME280;55982;51.476;7.552;2024-02-26T07:11:13;98285.13;;;5.39;100.00
68941;BME280;55982;51.476;7.552;2024-02-26T07:13:39;98284.91;;;5.45;100.00
68941;BME280;55982;51.476;7.552;2024-02-26T07:16:04;98286.13;;;5.58;100.00
68941;BME280;55982;51.476;7.552;2024-02-26T07:18:29;98291.19;;;5.62;100.00
68941;BME280;55982;51.476;7.552;2024-02-26T07:20:55;98294.13;;;5.76;100.00
68941;BME280;55982;51.476;7.552;2024-02-26T07:23:20;98294.34;;;5.70;100.00
68941;BME280;55982;51.476;7.552;2024-02-26T07:25:46;98301.72;;;5.80;100.00
68941;BME280;55982;51.476;7.552;2024-02-26T07:28:13;98295.50;;;5.86;100.00
68941;BME280;55982;51.476;7.552;2024-02-26T07:30:39;98294.50;;;5.67;100.00
68941;BME280;55982;51.476;7.552;2024-02-26T07:33:04;98307.97;;;5.75;100.00
68941;BME280;55982;51.476;7.552;2024-02-26T07:35:29;98308.75;;;5.78;100.00
68941;BME280;55982;51.476;7.552;2024-02-26T07:37:55;98314.44;;;5.88;100.00
68941;BME280;55982;51.476;7.552;2024-02-26T07:40:20;98320.53;;;5.87;100.00
68941;BME280;55982;51.476;7.552;2024-02-26T07:42:45;98320.97;;;5.98;100.00
68941;BME280;55982;51.476;7.552;2024-02-26T07:45:10;98313.41;;;5.69;100.00
68941;BME280;55982;51.476;7.552;2024-02-26T07:47:36;98316.56;;;5.77;100.00
68941;BME280;55982;51.476;7.552;2024-02-26T07:50:02;98316.47;;;5.80;100.00
68941;BME280;55982;51.476;7.552;2024-02-26T07:52:28;98329.66;;;5.97;100.00
68941;BME280;55982;51.476;7.552;2024-02-26T07:54:53;98333.53;;;6.08;100.00
68941;BME280;55982;51.476;7.552;2024-02-26T07:57:18;98339.50;;;6.10;100.00
68941;BME280;55982;51.476;7.552;2024-02-26T07:59:44;98331.78;;;6.09;100.00
68941;BME280;55982;51.476;7.552;2024-02-26T08:02:10;98335.94;;;6.13;100.00
68941;BME280;55982;51.476;7.552;2024-02-26T08:04:35;98347.78;;;6.20;100.00
68941;BME280;55982;51.476;7.552;2024-02-26T08:07:00;98346.22;;;6.16;100.00
68941;BME280;55982;51.476;7.552;2024-02-26T08:09:25;98341.03;;;6.16;100.00
68941;BME280;55982;51.476;7.552;2024-02-26T08:11:50;98341.38;;;6.07;100.00
68941;BME280;55982;51.476;7.552;2024-02-26T08:14:16;98346.81;;;6.01;100.00
68941;BME280;55982;51.476;7.552;2024-02-26T08:16:41;98339.81;;;6.03;100.00
68941;BME280;55982;51.476;7.552;2024-02-26T08:19:06;98350.84;;;6.08;100.00
68941;BME280;55982;51.476;7.552;2024-02-26T08:21:31;98356.56;;;5.94;100.00
68941;BME280;55982;51.476;7.552;2024-02-26T08:23:57;98355.25;;;6.06;100.00
68941;BME280;55982;51.476;7.552;2024-02-26T08:26:22;98345.69;;;5.85;100.00
68941;BME280;55982;51.476;7.552;2024-02-26T08:28:49;98350.97;;;5.82;100.00
68941;BME280;55982;51.476;7.552;2024-02-26T08:31:16;98357.75;;;6.09;100.00
68941;BME280;55982;51.476;7.552;2024-02-26T08:33:41;98353.34;;;6.11;100.00
68941;BME280;55982;51.476;7.552;2024-02-26T08:36:06;98357.06;;;6.04;100.00
68941;BME280;55982;51.476;7.552;2024-02-26T08:38:32;98359.97;;;6.18;100.00
68941;BME280;55982;51.476;7.552;2024-02-26T08:40:59;98356.97;;;6.07;100.00
68941;BME280;55982;51.476;7.552;2024-02-26T08:43:24;98360.69;;;6.21;100.00
68941;BME280;55982;51.476;7.552;2024-02-26T08:45:50;98357.25;;;6.21;100.00
68941;BME280;55982;51.476;7.552;2024-02-26T08:48:15;98359.84;;;6.21;100.00
68941;BME280;55982;51.476;7.552;2024-02-26T08:50:40;98364.78;;;5.84;100.00
68941;BME280;55982;51.476;7.552;2024-02-26T08:53:06;98361.78;;;6.16;100.00
68941;BME280;55982;51.476;7.552;2024-02-26T08:55:32;98360.38;;;6.07;100.00
68941;BME280;55982;51.476;7.552;2024-02-26T08:57:57;98364.19;;;5.99;100.00
68941;BME280;55982;51.476;7.552;2024-02-26T09:00:22;98366.66;;;6.02;100.00
68941;BME280;55982;51.476;7.552;2024-02-26T09:02:48;98364.94;;;6.24;100.00
68941;BME280;55982;51.476;7.552;2024-02-26T09:05:14;98364.75;;;6.07;100.00
68941;BME280;55982;51.476;7.552;2024-02-26T09:07:39;98369.63;;;6.36;100.00
68941;BME280;55982;51.476;7.552;2024-02-26T09:10:05;98364.09;;;6.45;100.00
68941;BME280;55982;51.476;7.552;2024-02-26T09:12:30;98368.28;;;6.04;100.00
68941;BME280;55982;51.476;7.552;2024-02-26T09:14:55;98364.47;;;6.13;100.00
68941;BME280;55982;51.476;7.552;2024-02-26T09:17:22;98363.13;;;6.26;100.00
68941;BME280;55982;51.476;7.552;2024-02-26T09:19:47;98369.75;;;6.33;100.00
68941;BME280;55982;51.476;7.552;2024-02-26T09:22:13;98371.56;;;6.31;100.00
68941;BME280;55982;51.476;7.552;2024-02-26T09:24:38;98374.09;;;6.54;100.00
68941;BME280;55982;51.476;7.552;2024-02-26T09:27:03;98379.31;;;6.54;100.00
68941;BME280;55982;51.476;7.552;2024-02-26T09:29:29;98385.81;;;6.86;100.00
68941;BME280;55982;51.476;7.552;2024-02-26T09:34:21;98383.63;;;6.75;100.00
68941;BME280;55982;51.476;7.552;2024-02-26T09:36:46;98386.91;;;6.59;100.00
68941;BME280;55982;51.476;7.552;2024-02-26T09:39:11;98382.44;;;6.62;100.00
68941;BME280;55982;51.476;7.552;2024-02-26T09:41:37;98384.09;;;6.43;100.00
68941;BME280;55982;51.476;7.552;2024-02-26T09:44:04;98392.09;;;6.37;100.00
68941;BME280;55982;51.476;7.552;2024-02-26T09:46:30;98391.94;;;6.41;100.00
68941;BME280;55982;51.476;7.552;2024-02-26T09:48:55;98386.06;;;6.58;100.00
68941;BME280;55982;51.476;7.552;2024-02-26T09:51:22;98392.16;;;6.57;100.00
68941;BME280;55982;51.476;7.552;2024-02-26T09:53:49;98393.94;;;6.57;100.00
68941;BME280;55982;51.476;7.552;2024-02-26T09:56:16;98392.47;;;6.71;100.00
68941;BME280;55982;51.476;7.552;2024-02-26T09:58:41;98393.97;;;6.77;100.00
68941;BME280;55982;51.476;7.552;2024-02-26T10:01:09;98392.53;;;6.90;100.00
68941;BME280;55982;51.476;7.552;2024-02-26T10:03:37;98390.69;;;7.13;100.00
68941;BME280;55982;51.476;7.552;2024-02-26T10:06:03;98401.09;;;7.13;100.00
68941;BME280;55982;51.476;7.552;2024-02-26T10:08:30;98393.28;;;7.13;100.00
68941;BME280;55982;51.476;7.552;2024-02-26T10:10:56;98409.13;;;7.07;100.00
68941;BME280;55982;51.476;7.552;2024-02-26T10:13:21;98402.50;;;7.20;100.00
68941;BME280;55982;51.476;7.552;2024-02-26T10:15:48;98417.09;;;7.45;100.00
68941;BME280;55982;51.476;7.552;2024-02-26T10:18:13;98430.63;;;7.53;100.00
68941;BME280;55982;51.476;7.552;2024-02-26T10:20:38;98442.03;;;7.28;100.00
68941;BME280;55982;51.476;7.552;2024-02-26T10:23:03;98437.75;;;7.48;100.00
68941;BME280;55982;51.476;7.552;2024-02-26T10:25:30;98439.56;;;7.46;100.00
68941;BME280;55982;51.476;7.552;2024-02-26T10:27:58;98448.31;;;7.45;100.00
68941;BME280;55982;51.476;7.552;2024-02-26T10:30:24;98448.69;;;7.56;100.00
68941;BME280;55982;51.476;7.552;2024-02-26T10:32:51;98455.97;;;7.68;100.00
68941;BME280;55982;51.476;7.552;2024-02-26T10:35:17;98448.41;;;7.41;100.00
68941;BME280;55982;51.476;7.552;2024-02-26T10:37:48;98455.72;;;7.74;100.00
68941;BME280;55982;51.476;7.552;2024-02-26T10:40:14;98457.13;;;7.81;100.00
68941;BME280;55982;51.476;7.552;2024-02-26T10:42:40;98451.03;;;7.62;100.00
68941;BME280;55982;51.476;7.552;2024-02-26T10:45:06;98452.84;;;7.60;100.00
68941;BME280;55982;51.476;7.552;2024-02-26T10:47:32;98451.16;;;7.59;100.00
68941;BME280;55982;51.476;7.552;2024-02-26T10:49:58;98448.09;;;7.69;100.00
68941;BME280;55982;51.476;7.552;2024-02-26T10:52:24;98455.81;;;7.71;100.00
68941;BME280;55982;51.476;7.552;2024-02-26T10:54:50;98456.41;;;7.77;100.00
68941;BME280;55982;51.476;7.552;2024-02-26T10:57:18;98455.03;;;7.89;100.00
68941;BME280;55982;51.476;7.552;2024-02-26T10:59:44;98458.31;;;8.12;100.00
68941;BME280;55982;51.476;7.552;2024-02-26T11:02:10;98459.84;;;8.16;100.00
68941;BME280;55982;51.476;7.552;2024-02-26T11:04:35;98469.66;;;8.30;100.00
68941;BME280;55982;51.476;7.552;2024-02-26T11:07:01;98474.94;;;8.28;100.00
68941;BME280;55982;51.476;7.552;2024-02-26T11:09:27;98466.59;;;8.02;100.00
68941;BME280;55982;51.476;7.552;2024-02-26T11:11:53;98481.94;;;8.08;100.00
68941;BME280;55982;51.476;7.552;2024-02-26T11:14:20;98474.50;;;8.19;100.00
68941;BME280;55982;51.476;7.552;2024-02-26T11:16:45;98476.19;;;8.20;100.00
68941;BME280;55982;51.476;7.552;2024-02-26T11:19:12;98478.13;;;8.35;100.00
68941;BME280;55982;51.476;7.552;2024-02-26T11:21:39;98470.28;;;8.72;100.00
68941;BME280;55982;51.476;7.552;2024-02-26T11:24:07;98474.75;;;8.33;100.00
68941;BME280;55982;51.476;7.552;2024-02-26T11:26:33;98466.38;;;8.45;100.00
68941;BME280;55982;51.476;7.552;2024-02-26T11:29:00;98477.50;;;8.49;100.00
68941;BME280;55982;51.476;7.552;2024-02-26T11:31:26;98469.88;;;8.44;100.00
68941;BME280;55982;51.476;7.552;2024-02-26T11:33:53;98470.28;;;8.72;100.00
68941;BME280;55982;51.476;7.552;2024-02-26T11:36:18;98475.00;;;8.83;100.00
68941;BME280;55982;51.476;7.552;2024-02-26T11:38:47;98468.63;;;8.34;100.00
68941;BME280;55982;51.476;7.552;2024-02-26T11:41:16;98473.28;;;8.27;100.00
68941;BME280;55982;51.476;7.552;2024-02-26T11:46:29;98469.47;;;8.53;100.00
68941;BME280;55982;51.476;7.552;2024-02-26T11:51:51;98459.84;;;8.72;100.00
68941;BME280;55982;51.476;7.552;2024-02-26T11:56:46;98480.44;;;8.78;100.00
68941;BME280;55982;51.476;7.552;2024-02-26T11:59:12;98478.59;;;8.99;100.00
68941;BME280;55982;51.476;7.552;2024-02-26T12:04:16;98486.53;;;9.32;100.00
68941;BME280;55982;51.476;7.552;2024-02-26T12:06:46;98497.03;;;9.47;100.00
68941;BME280;55982;51.476;7.552;2024-02-26T12:09:11;98492.25;;;9.21;100.00
68941;BME280;55982;51.476;7.552;2024-02-26T12:11:38;98496.59;;;9.39;100.00
68941;BME280;55982;51.476;7.552;2024-02-26T12:14:05;98502.72;;;9.38;100.00
68941;BME280;55982;51.476;7.552;2024-02-26T12:16:39;98509.09;;;9.33;100.00
68941;BME280;55982;51.476;7.552;2024-02-26T12:19:05;98512.13;;;9.06;100.00
68941;BME280;55982;51.476;7.552;2024-02-26T12:21:32;98514.50;;;9.28;100.00
68941;BME280;55982;51.476;7.552;2024-02-26T12:24:06;98509.25;;;9.30;100.00
68941;BME280;55982;51.476;7.552;2024-02-26T12:26:31;98508.91;;;9.18;100.00
68941;BME280;55982;51.476;7.552;2024-02-26T12:28:57;98506.16;;;9.21;100.00
68941;BME280;55982;51.476;7.552;2024-02-26T12:31:22;98517.50;;;9.20;100.00
68941;BME280;55982;51.476;7.552;2024-02-26T12:33:47;98513.22;;;9.19;100.00
68941;BME280;55982;51.476;7.552;2024-02-26T12:36:12;98514.59;;;9.27;100.00
68941;BME280;55982;51.476;7.552;2024-02-26T12:38:38;98517.69;;;9.52;100.00
68941;BME280;55982;51.476;7.552;2024-02-26T12:41:03;98516.94;;;8.97;100.00
68941;BME280;55982;51.476;7.552;2024-02-26T12:43:28;98503.88;;;9.33;100.00
68941;BME280;55982;51.476;7.552;2024-02-26T12:45:54;98504.16;;;9.27;100.00
68941;BME280;55982;51.476;7.552;2024-02-26T12:48:20;98507.50;;;9.64;100.00
68941;BME280;55982;51.476;7.552;2024-02-26T12:50:45;98510.91;;;9.31;100.00
68941;BME280;55982;51.476;7.552;2024-02-26T12:53:12;98510.41;;;9.05;100.00
68941;BME280;55982;51.476;7.552;2024-02-26T12:55:37;98515.94;;;9.52;100.00
68941;BME280;55982;51.476;7.552;2024-02-26T12:58:04;98512.28;;;9.38;100.00
68941;BME280;55982;51.476;7.552;2024-02-26T13:00:29;98520.84;;;9.05;100.00
68941;BME280;55982;51.476;7.552;2024-02-26T13:02:55;98513.53;;;8.76;100.00
68941;BME280;55982;51.476;7.552;2024-02-26T13:07:47;98537.66;;;8.81;100.00